Aérodrome :
LOGIN :

S'inscrire | Disclaimer

   EN    FR    IT 

 










Légende :    VFR   VFR Marginal   IFR   IFR Intensif   IFR Très Intensif
Visi : 
Plafond : 
>= 8 km
>= 3000ft
5 à 8 km
1000 à 3000 ft
1500m à 5 km
500 à 1000 ft
800 à 1500m
200 à 500 ft
< 800m
< 200 ft
Symboles :   Orages  Brouillard  Fortes neiges  Fortes précipitations  Vent > 20 kt
SIGMETs :   Divers  Orages  Givrage  Turbulence  Onde Orograph.  Cendres Volcan.







- Altitude de l'aérodrome : 18 ft


LIPC - Cervia AFB Ravenna

DERNIER METAR :
  • 212355Z 26006KT CAVOK 18/17 Q1011

METARs EXPIRÉS :
  • 212255Z 26004KT 9999 BKN060 18/17 Q1011
  • 212155Z 29002KT CAVOK 18/17 Q1012

TAF TAF LIPC
Valide du 22 à 00h jusqu'au 22 à 09h UTC


212300Z 2200/2209 VRB05KT 9999 BKN060
PROB30
TEMPO 2201/2204 TSRA FEW020CB SCT030
Pas de NOTAMs connus pour ce terrain.
3 SIGMETs publiés pour la FIR Milano (LIMM) :
 
Annulation du SIGMET 5 
LIMM SIGMET 7 VALID 212337/220100 LIIP
LIMM MILANO FIR CNL SIGMET 5 212300/220100=
Orages noyés dans la masse
LIMM SIGMET 6 VALID 212337/220337 LIIP
LIMM MILANO FIR EMBD TS FCST S OF LINE N4433 E00634 - N4453 E01327 TOP FL320 MOV N NC=
SIGMET 5  ANNULÉ :
Orages noyés dans la masse
LIMM SIGMET 5 VALID 212300/220100 LIIP
LIMM MILANO FIR EMBD TS FCST S OF LINE N4507 E00634 - N4437 E01327 - N4354 E01242 - N4507 E00634 TOP FL320 MOV N NC=



MET'MAP, la Météo Aéronautique d'un coup d'oeil ! - Copyright ORBIFLY Décembre 2007 - Disclaimer

ORBIFLY MET'MAP TEAM :

Programmation & Développement : Alexandra Zaïnal
Conception & Développement : Baudouin d'Aumeries
Co-Programmation & Développement : Marc-Olivier Méhu
Soutien technique & logistique : Manuel Goepfert

Contact : metmap@orbifly.com




SOURCES & CREDITS :

   NOAA